Time;durP1;ratioP1;P1;durP2;ratioP2;P2;SDS_P1;SDS_P2;PMS_P1;PMS_P2;Temp;Humidity;BMP_temperature;BMP_pressure;BME280_temperature;BME280_humidity;BME280_pressure;Samples;Min_cycle;Max_cycle;Signal;HPM_P1;HPM_P2
2022/06/19 00:00:23;;;;;;;7.57;4.20;;;23.90;99.90;;;;;;5069822;28;20197;-56
2022/06/19 00:02:51;;;;;;;16.50;4.63;;;23.90;99.90;;;;;;5065829;28;20224;-56
2022/06/19 00:05:18;;;;;;;7.67;4.77;;;23.80;99.90;;;;;;5066458;28;20282;-56
2022/06/19 00:07:45;;;;;;;6.30;3.60;;;23.70;99.90;;;;;;5069407;28;20220;-56
2022/06/19 00:10:13;;;;;;;15.83;4.10;;;23.70;99.90;;;;;;5068741;28;20255;-56
2022/06/19 00:12:41;;;;;;;16.97;4.27;;;23.70;99.90;;;;;;5069677;28;20201;-56
2022/06/19 00:15:09;;;;;;;11.90;3.83;;;23.70;99.90;;;;;;5066598;28;20308;-56
2022/06/19 00:17:36;;;;;;;8.43;4.03;;;23.70;99.90;;;;;;5070365;28;20251;-56
2022/06/19 00:20:06;;;;;;;13.33;5.13;;;23.60;99.90;;;;;;5069178;28;20262;-56
2022/06/19 00:22:33;;;;;;;9.77;4.07;;;23.50;99.90;;;;;;5070013;28;20258;-56
2022/06/19 00:25:00;;;;;;;10.33;4.23;;;23.50;99.90;;;;;;5065463;28;20300;-56
2022/06/19 00:27:27;;;;;;;17.77;6.03;;;23.50;99.90;;;;;;5068964;28;20263;-56
2022/06/19 00:29:54;;;;;;;10.27;5.00;;;23.40;99.90;;;;;;5062683;28;20732;-56
2022/06/19 00:32:25;;;;;;;12.33;3.50;;;23.50;99.90;;;;;;5063221;28;20275;-56
2022/06/19 00:34:52;;;;;;;7.20;4.37;;;23.40;99.90;;;;;;5068048;28;20306;-56
2022/06/19 00:37:22;;;;;;;9.10;4.93;;;23.30;99.90;;;;;;5070459;28;20349;-56
2022/06/19 00:39:49;;;;;;;11.47;4.77;;;23.30;99.90;;;;;;5065687;28;20247;-56
2022/06/19 00:42:16;;;;;;;13.70;5.13;;;23.30;99.90;;;;;;5067281;28;20200;-56
2022/06/19 00:44:44;;;;;;;8.07;4.20;;;23.30;99.90;;;;;;5064862;28;20338;-55
2022/06/19 00:47:21;;;;;;;8.90;4.20;;;23.20;99.90;;;;;;5062726;28;20242;-55
2022/06/19 00:49:51;;;;;;;15.43;5.30;;;23.20;99.90;;;;;;5067048;28;20197;-56
2022/06/19 00:52:24;;;;;;;11.93;4.90;;;23.20;99.90;;;;;;5069098;28;20205;-56
2022/06/19 00:54:57;;;;;;;10.63;4.70;;;23.10;99.90;;;;;;5069122;28;20258;-56
2022/06/19 00:57:26;;;;;;;11.67;5.77;;;23.10;99.90;;;;;;5064406;28;20255;-56
2022/06/19 01:00:00;;;;;;;11.17;5.67;;;23.10;99.90;;;;;;5066643;28;20197;-56
2022/06/19 01:02:27;;;;;;;14.17;5.87;;;23.10;99.90;;;;;;5067230;28;20262;-56
2022/06/19 01:04:56;;;;;;;10.93;5.10;;;23.30;99.90;;;;;;5064335;28;20212;-55
2022/06/19 01:07:27;;;;;;;16.77;4.77;;;23.30;99.90;;;;;;5069770;28;20266;-56
2022/06/19 01:09:54;;;;;;;11.87;5.13;;;23.40;99.90;;;;;;5053722;28;20220;-56
2022/06/19 01:12:25;;;;;;;11.10;5.63;;;23.50;99.90;;;;;;5068310;28;20198;-56
2022/06/19 01:14:57;;;;;;;12.97;4.70;;;23.60;99.90;;;;;;5068070;28;20616;-56
2022/06/19 01:17:25;;;;;;;9.90;4.80;;;23.70;99.90;;;;;;5060260;28;20253;-56
2022/06/19 01:19:52;;;;;;;9.47;4.77;;;23.60;99.90;;;;;;5064172;28;20201;-56
2022/06/19 01:22:30;;;;;;;16.47;5.30;;;23.70;99.90;;;;;;5068587;28;20205;-56
2022/06/19 01:25:10;;;;;;;7.60;5.60;;;23.70;99.90;;;;;;5062816;28;20217;-56
2022/06/19 01:30:27;;;;;;;8.03;5.23;;;23.60;99.90;;;;;;5064457;28;20620;-56
2022/06/19 01:32:57;;;;;;;12.20;5.17;;;23.50;99.90;;;;;;5058903;28;20370;-56
2022/06/19 01:35:25;;;;;;;13.57;6.47;;;23.50;99.90;;;;;;5067077;28;20295;-56
2022/06/19 01:37:53;;;;;;;9.17;5.80;;;23.50;99.90;;;;;;5072819;28;20693;-56
2022/06/19 01:40:24;;;;;;;9.67;4.97;;;23.50;99.90;;;;;;5069183;28;20267;-56
2022/06/19 01:42:51;;;;;;;11.77;6.57;;;23.60;99.90;;;;;;5071708;28;20197;-56
2022/06/19 01:45:19;;;;;;;9.87;5.10;;;23.60;99.90;;;;;;5061772;28;20596;-56
2022/06/19 01:47:46;;;;;;;11.13;5.53;;;23.60;99.90;;;;;;5064898;28;20197;-56
2022/06/19 01:50:17;;;;;;;17.23;6.63;;;23.60;99.90;;;;;;5070350;28;20197;-56
2022/06/19 01:52:44;;;;;;;8.37;5.33;;;23.60;99.90;;;;;;5071318;28;20197;-56
2022/06/19 01:55:14;;;;;;;14.50;5.83;;;23.60;99.90;;;;;;5072809;28;20307;-56
2022/06/19 01:57:45;;;;;;;9.87;6.63;;;23.60;99.90;;;;;;5071190;28;20622;-56
2022/06/19 02:00:16;;;;;;;14.33;6.53;;;23.50;99.90;;;;;;5071280;28;20198;-55
2022/06/19 02:02:46;;;;;;;14.23;6.27;;;23.40;99.90;;;;;;5066099;28;20621;-55
2022/06/19 02:05:13;;;;;;;12.27;5.70;;;23.50;99.90;;;;;;5061856;28;20229;-56
2022/06/19 02:07:40;;;;;;;16.10;6.80;;;23.40;99.90;;;;;;5072281;28;20189;-56
2022/06/19 02:10:09;;;;;;;14.37;5.97;;;23.40;99.90;;;;;;5071623;28;20617;-56
2022/06/19 02:12:37;;;;;;;16.20;6.37;;;23.40;99.90;;;;;;5071457;28;20343;-56
2022/06/19 02:15:10;;;;;;;11.73;5.90;;;23.50;99.90;;;;;;5063922;28;20222;-55
2022/06/19 02:17:40;;;;;;;12.17;6.70;;;23.50;99.90;;;;;;5070310;28;20262;-56
2022/06/19 02:20:08;;;;;;;15.77;6.00;;;23.60;99.90;;;;;;5073064;28;20280;-56
2022/06/19 02:22:35;;;;;;;14.63;6.87;;;23.70;99.90;;;;;;5064591;28;20205;-56
2022/06/19 02:25:03;;;;;;;12.77;6.27;;;23.80;99.60;;;;;;5067400;28;20270;-55
2022/06/19 02:27:32;;;;;;;17.60;6.20;;;23.90;99.50;;;;;;5061091;28;20198;-56
2022/06/19 02:30:01;;;;;;;10.20;5.73;;;24.00;99.50;;;;;;5062234;28;20247;-55
2022/06/19 02:32:35;;;;;;;13.77;6.73;;;24.00;99.50;;;;;;5072713;28;20251;-56
2022/06/19 02:35:02;;;;;;;11.80;5.90;;;24.10;99.20;;;;;;5071865;28;20221;-55
2022/06/19 02:37:41;;;;;;;15.40;6.00;;;24.10;99.00;;;;;;5072067;28;20212;-55
2022/06/19 02:40:19;;;;;;;9.67;5.97;;;24.10;99.20;;;;;;5063363;28;20193;-56
2022/06/19 02:42:48;;;;;;;11.90;6.03;;;24.10;98.80;;;;;;5063634;28;20653;-56
2022/06/19 02:45:17;;;;;;;18.30;6.33;;;24.10;98.90;;;;;;5071785;28;20217;-56
2022/06/19 02:47:47;;;;;;;7.10;4.90;;;24.00;98.70;;;;;;5060620;28;20724;-55
2022/06/19 02:50:16;;;;;;;6.33;5.13;;;23.90;99.00;;;;;;5071244;28;20255;-55
2022/06/19 02:52:43;;;;;;;10.77;5.10;;;23.80;98.90;;;;;;5065085;28;20229;-55
2022/06/19 02:55:11;;;;;;;9.07;5.23;;;23.80;99.40;;;;;;5062925;28;20286;-56
2022/06/19 02:57:39;;;;;;;11.30;5.53;;;23.70;99.50;;;;;;5068906;28;20225;-55
2022/06/19 03:00:09;;;;;;;6.00;5.40;;;23.60;99.90;;;;;;5071078;28;20197;-55
2022/06/19 03:02:36;;;;;;;10.10;5.00;;;23.50;99.90;;;;;;5065402;28;20201;-56
2022/06/19 03:05:07;;;;;;;7.10;5.37;;;23.40;99.90;;;;;;5063037;28;20236;-56
2022/06/19 03:07:34;;;;;;;14.47;5.20;;;23.40;99.90;;;;;;5066791;28;20252;-55
2022/06/19 03:10:01;;;;;;;8.53;5.53;;;23.40;99.90;;;;;;5070291;28;20205;-56
2022/06/19 03:12:27;;;;;;;10.73;4.93;;;23.30;99.90;;;;;;5070966;28;20197;-55
2022/06/19 03:14:54;;;;;;;5.93;4.30;;;23.20;99.90;;;;;;5066333;28;20224;-56
2022/06/19 03:17:26;;;;;;;11.13;5.50;;;23.10;99.90;;;;;;5065354;28;20694;-56
2022/06/19 03:19:53;;;;;;;15.90;6.00;;;23.00;99.90;;;;;;5062524;28;20250;-56
2022/06/19 03:22:22;;;;;;;8.80;4.37;;;23.00;99.90;;;;;;5062760;28;20201;-55
2022/06/19 03:24:49;;;;;;;11.97;5.60;;;23.00;99.90;;;;;;5061851;28;20197;-56
2022/06/19 03:27:17;;;;;;;7.73;4.93;;;22.90;99.90;;;;;;5069340;28;20197;-55
2022/06/19 03:29:44;;;;;;;7.33;5.40;;;23.00;99.90;;;;;;5065400;28;20198;-55
2022/06/19 03:32:12;;;;;;;13.90;5.90;;;22.80;99.90;;;;;;5066964;28;20197;-55
2022/06/19 03:34:39;;;;;;;11.50;5.33;;;22.70;99.90;;;;;;5065235;28;20201;-55
2022/06/19 03:37:06;;;;;;;12.20;6.90;;;22.70;99.90;;;;;;5062767;28;20294;-55
2022/06/19 03:39:35;;;;;;;6.00;4.60;;;22.60;99.90;;;;;;5063961;28;20202;-55
2022/06/19 03:42:02;;;;;;;10.20;4.23;;;22.60;99.90;;;;;;5063923;28;20713;-56
2022/06/19 03:44:29;;;;;;;6.50;4.17;;;22.60;99.90;;;;;;5070360;28;20196;-55
2022/06/19 03:46:56;;;;;;;11.37;4.63;;;22.50;99.90;;;;;;5065891;28;20263;-55
2022/06/19 03:49:23;;;;;;;5.07;4.23;;;22.60;99.90;;;;;;5064437;28;20205;-55
2022/06/19 03:51:50;;;;;;;7.40;5.10;;;22.60;99.90;;;;;;5069512;28;20673;-56
2022/06/19 03:54:18;;;;;;;7.77;4.97;;;22.60;99.90;;;;;;5060451;28;20204;-55
2022/06/19 03:56:46;;;;;;;9.90;4.93;;;22.60;99.90;;;;;;5063915;28;20217;-55
2022/06/19 03:59:14;;;;;;;8.97;6.07;;;22.60;99.90;;;;;;5069913;28;20205;-55
2022/06/19 04:01:41;;;;;;;13.60;5.23;;;22.60;99.90;;;;;;5061552;28;20198;-55
2022/06/19 04:04:10;;;;;;;10.80;5.23;;;22.60;99.90;;;;;;5066581;28;20311;-55
2022/06/19 04:06:38;;;;;;;14.17;5.03;;;22.60;99.90;;;;;;5075050;22;20229;-50
2022/06/19 04:09:07;;;;;;;15.97;5.07;;;22.60;99.90;;;;;;5051303;28;20252;-50
2022/06/19 04:11:35;;;;;;;15.03;6.17;;;22.60;99.90;;;;;;5052050;28;20671;-50
2022/06/19 04:14:04;;;;;;;13.00;6.17;;;22.60;99.90;;;;;;5043024;28;20199;-50
2022/06/19 04:16:33;;;;;;;16.77;5.20;;;22.50;99.90;;;;;;5051764;28;20314;-50
2022/06/19 04:19:02;;;;;;;22.93;6.93;;;22.60;99.90;;;;;;5051826;28;20618;-50
2022/06/19 04:21:35;;;;;;;8.73;5.03;;;22.60;99.90;;;;;;5051462;28;20208;-50
2022/06/19 04:24:04;;;;;;;15.50;5.00;;;22.60;99.90;;;;;;5051466;28;20208;-50
2022/06/19 04:26:34;;;;;;;7.07;5.40;;;22.60;99.90;;;;;;5050653;28;20209;-50
2022/06/19 04:29:04;;;;;;;12.80;5.33;;;22.60;99.90;;;;;;5051514;28;20746;-49
2022/06/19 04:31:31;;;;;;;11.23;5.43;;;22.60;99.90;;;;;;5051575;28;20198;-50
2022/06/19 04:33:58;;;;;;;15.37;5.67;;;22.70;99.90;;;;;;5051798;28;20604;-50
2022/06/19 04:36:26;;;;;;;12.63;5.80;;;22.80;99.90;;;;;;5051540;28;20275;-50
2022/06/19 04:38:55;;;;;;;11.97;4.97;;;22.90;99.90;;;;;;5051184;28;20251;-50
2022/06/19 04:41:25;;;;;;;10.73;4.77;;;22.90;99.90;;;;;;5049107;28;20198;-50
2022/06/19 04:43:54;;;;;;;16.77;5.40;;;22.90;99.90;;;;;;5045370;28;20206;-49
2022/06/19 04:46:22;;;;;;;13.77;6.07;;;23.00;99.90;;;;;;5043504;28;20221;-50
2022/06/19 04:48:50;;;;;;;14.57;5.57;;;23.10;99.90;;;;;;5050852;28;20199;-50
2022/06/19 04:51:18;;;;;;;10.77;5.60;;;23.20;99.90;;;;;;5049320;28;20202;-49
2022/06/19 04:53:45;;;;;;;7.57;5.43;;;23.30;99.90;;;;;;5046170;28;20285;-49
2022/06/19 04:56:14;;;;;;;7.17;4.23;;;23.30;99.90;;;;;;5048589;28;20226;-50
2022/06/19 04:58:42;;;;;;;13.47;4.30;;;23.50;99.90;;;;;;5047261;28;20198;-49
2022/06/19 05:01:12;;;;;;;15.40;7.07;;;23.60;99.90;;;;;;5047900;28;20194;-49
2022/06/19 05:03:41;;;;;;;12.57;5.93;;;23.80;99.90;;;;;;5042662;28;20744;-50
2022/06/19 05:06:08;;;;;;;10.47;5.27;;;23.90;99.90;;;;;;5041984;28;20463;-49
2022/06/19 05:08:36;;;;;;;12.43;4.83;;;24.30;99.90;;;;;;5047156;28;20201;-49
2022/06/19 05:11:03;;;;;;;10.80;4.60;;;24.70;99.90;;;;;;5050883;28;20220;-49
2022/06/19 05:13:30;;;;;;;19.00;5.10;;;25.20;99.90;;;;;;5052751;28;20201;-49
2022/06/19 05:16:05;;;;;;;9.57;6.53;;;25.80;99.90;;;;;;5050774;28;20214;-49
2022/06/19 05:18:34;;;;;;;13.17;5.03;;;26.60;99.90;;;;;;5051292;28;20218;-50
2022/06/19 05:21:04;;;;;;;8.13;4.70;;;27.40;99.90;;;;;;5052566;28;20201;-49
2022/06/19 05:23:32;;;;;;;10.30;5.47;;;28.00;99.90;;;;;;5053543;28;20206;-50
2022/06/19 05:26:01;;;;;;;10.90;4.90;;;28.60;99.90;;;;;;5044414;28;20700;-50
2022/06/19 05:28:29;;;;;;;12.63;5.68;;;29.00;99.90;;;;;;5054316;28;20194;-50
2022/06/19 05:30:57;;;;;;;11.02;5.47;;;29.60;99.90;;;;;;5049715;28;20251;-50
2022/06/19 05:33:25;;;;;;;9.73;5.40;;;30.20;99.90;;;;;;5050878;28;20198;-50
2022/06/19 05:35:52;;;;;;;11.15;5.15;;;30.60;99.60;;;;;;5051151;28;20228;-50
2022/06/19 05:38:21;;;;;;;9.73;4.65;;;30.90;98.10;;;;;;5051839;28;20245;-50
2022/06/19 05:40:52;;;;;;;12.30;4.88;;;31.30;97.00;;;;;;5050736;28;20209;-50
2022/06/19 05:43:19;;;;;;;19.05;6.28;;;31.90;95.90;;;;;;5050125;28;20252;-50
2022/06/19 05:45:51;;;;;;;13.23;5.45;;;32.30;95.30;;;;;;5051246;28;20230;-50
2022/06/19 05:48:19;;;;;;;10.98;4.57;;;32.80;92.60;;;;;;5051002;28;20846;-50
2022/06/19 05:50:46;;;;;;;21.95;10.32;;;33.10;93.10;;;;;;5051768;28;20194;-51
2022/06/19 05:53:13;;;;;;;12.57;7.10;;;33.00;93.90;;;;;;5051504;28;20202;-51
2022/06/19 05:55:42;;;;;;;13.73;5.00;;;33.40;93.40;;;;;;5050676;28;20693;-51
2022/06/19 05:58:10;;;;;;;10.43;5.68;;;33.90;95.10;;;;;;5049806;28;20226;-51
2022/06/19 06:00:37;;;;;;;7.57;4.93;;;34.10;93.70;;;;;;5052538;28;20285;-50
2022/06/19 06:03:05;;;;;;;10.00;4.43;;;34.30;91.60;;;;;;5048525;28;20214;-50
2022/06/19 06:05:32;;;;;;;14.52;4.85;;;34.50;91.10;;;;;;5050871;28;20229;-50
2022/06/19 06:07:59;;;;;;;12.75;5.18;;;34.70;89.00;;;;;;5050137;28;20217;-50
2022/06/19 06:10:26;;;;;;;11.23;5.20;;;34.90;88.50;;;;;;5051472;28;20209;-51
2022/06/19 06:12:55;;;;;;;11.63;5.30;;;34.90;90.60;;;;;;5050640;28;20206;-51
2022/06/19 06:15:22;;;;;;;8.23;4.60;;;35.00;91.40;;;;;;5052400;28;20194;-51
2022/06/19 06:17:49;;;;;;;9.75;5.07;;;35.50;87.60;;;;;;5052147;28;20264;-51
2022/06/19 06:20:17;;;;;;;9.25;6.35;;;35.70;90.00;;;;;;5050506;28;20202;-51
2022/06/19 06:22:44;;;;;;;11.65;4.88;;;36.10;86.80;;;;;;5044816;28;20198;-51
2022/06/19 06:25:12;;;;;;;17.70;5.85;;;36.10;85.70;;;;;;5051034;28;20324;-51
2022/06/19 06:27:40;;;;;;;12.40;4.80;;;36.40;87.50;;;;;;5048714;28;20206;-51
2022/06/19 06:30:11;;;;;;;4.90;4.40;;;36.50;84.00;;;;;;5047324;28;20289;-50
2022/06/19 06:32:38;;;;;;;10.98;4.68;;;36.80;84.20;;;;;;5046689;28;20260;-50
2022/06/19 06:35:06;;;;;;;12.60;5.25;;;36.70;79.10;;;;;;5048956;28;20217;-51
2022/06/19 06:37:33;;;;;;;16.08;5.50;;;36.70;79.50;;;;;;5043873;28;20219;-51
2022/06/19 06:40:00;;;;;;;9.35;4.35;;;36.50;80.90;;;;;;5041262;28;20256;-50
2022/06/19 06:42:27;;;;;;;9.32;4.80;;;36.40;83.00;;;;;;5052800;28;20206;-51
2022/06/19 06:44:54;;;;;;;11.30;4.35;;;36.60;79.60;;;;;;5050983;28;20209;-51
2022/06/19 06:47:24;;;;;;;7.90;4.43;;;35.80;75.70;;;;;;5052027;28;20221;-51
2022/06/19 06:49:51;;;;;;;11.52;4.85;;;35.90;79.20;;;;;;5039559;28;20198;-50
2022/06/19 06:52:21;;;;;;;13.30;5.57;;;36.50;78.60;;;;;;5052139;28;20197;-51
2022/06/19 06:54:48;;;;;;;8.80;4.97;;;36.50;77.90;;;;;;5049226;28;20202;-51
2022/06/19 06:57:15;;;;;;;14.10;5.60;;;36.70;77.90;;;;;;5048350;28;20219;-51
2022/06/19 06:59:43;;;;;;;15.13;4.28;;;37.10;77.70;;;;;;5052094;28;20202;-51
2022/06/19 07:02:11;;;;;;;7.65;5.30;;;37.30;81.10;;;;;;5044503;28;20598;-51
2022/06/19 07:04:40;;;;;;;13.13;4.65;;;37.30;78.90;;;;;;5052996;28;20209;-50
2022/06/19 07:07:07;;;;;;;13.38;5.38;;;37.60;79.70;;;;;;5047543;28;20272;-51
2022/06/19 07:09:34;;;;;;;9.40;4.65;;;38.00;78.30;;;;;;5044485;28;20206;-51
2022/06/19 07:12:02;;;;;;;11.75;5.10;;;37.80;76.00;;;;;;5051403;28;20757;-51
2022/06/19 07:14:29;;;;;;;14.85;4.25;;;38.30;76.50;;;;;;5052717;28;20686;-51
2022/06/19 07:16:56;;;;;;;13.00;4.95;;;38.70;75.60;;;;;;5052696;28;20230;-51
2022/06/19 07:19:23;;;;;;;12.27;4.63;;;38.70;77.40;;;;;;5052837;28;20608;-52
2022/06/19 07:21:51;;;;;;;15.38;6.22;;;38.70;74.70;;;;;;5052525;28;20209;-51
2022/06/19 07:24:18;;;;;;;10.77;4.82;;;39.00;76.80;;;;;;5045593;28;20664;-51
2022/06/19 07:26:46;;;;;;;12.50;6.28;;;38.80;71.90;;;;;;5049138;28;20226;-51
2022/06/19 07:29:13;;;;;;;11.93;4.93;;;39.10;73.50;;;;;;5051826;28;20277;-51
2022/06/19 07:31:40;;;;;;;10.70;4.63;;;39.20;74.00;;;;;;5043634;28;20606;-52
2022/06/19 07:34:07;;;;;;;9.52;4.68;;;39.50;74.90;;;;;;5052637;28;20205;-51
2022/06/19 07:36:34;;;;;;;15.00;4.45;;;39.70;67.60;;;;;;5046187;28;20264;-51
2022/06/19 07:39:04;;;;;;;7.28;4.32;;;40.10;66.30;;;;;;5044635;28;20234;-52
2022/06/19 07:41:33;;;;;;;10.02;4.65;;;40.10;67.40;;;;;;5041722;28;20202;-52
2022/06/19 07:44:00;;;;;;;10.20;4.88;;;39.90;72.30;;;;;;5051399;28;20197;-51
2022/06/19 07:46:27;;;;;;;11.68;5.72;;;40.00;73.20;;;;;;5051134;28;20213;-52
2022/06/19 07:51:39;;;;;;;9.48;4.70;;;40.40;72.70;;;;;;5047585;28;20274;-51
2022/06/19 07:54:08;;;;;;;10.43;5.13;;;40.40;69.40;;;;;;5049753;28;20210;-51
2022/06/19 07:56:36;;;;;;;9.10;4.88;;;40.10;69.50;;;;;;5050970;28;20749;-52
2022/06/19 07:59:03;;;;;;;13.07;5.30;;;39.80;71.10;;;;;;5045525;28;20222;-51
2022/06/19 08:01:30;;;;;;;11.90;6.30;;;39.20;76.40;;;;;;5051707;28;20211;-51
2022/06/19 08:03:57;;;;;;;9.85;5.15;;;39.10;80.00;;;;;;5041130;28;20296;-51
2022/06/19 08:06:25;;;;;;;14.82;4.72;;;39.00;82.80;;;;;;5049711;28;20607;-51
2022/06/19 08:08:52;;;;;;;8.18;5.50;;;38.60;78.30;;;;;;5048792;28;20206;-51
2022/06/19 08:11:20;;;;;;;14.57;6.05;;;38.60;80.20;;;;;;5047928;28;20202;-51
2022/06/19 08:13:47;;;;;;;9.98;5.00;;;39.10;76.20;;;;;;5050487;28;20202;-51
2022/06/19 08:16:14;;;;;;;10.43;4.30;;;38.40;75.80;;;;;;5049070;28;20213;-51
2022/06/19 08:18:41;;;;;;;10.82;4.70;;;38.20;76.10;;;;;;5048190;28;20271;-52
2022/06/19 08:21:09;;;;;;;10.70;4.53;;;38.50;75.60;;;;;;5049622;28;20204;-51
2022/06/19 08:23:36;;;;;;;10.48;4.80;;;38.60;77.00;;;;;;5047495;28;20327;-51
2022/06/19 08:26:03;;;;;;;19.40;5.47;;;39.20;81.90;;;;;;5041495;28;20233;-51
2022/06/19 08:28:35;;;;;;;14.05;5.60;;;40.00;77.10;;;;;;5050062;28;20671;-51
2022/06/19 08:31:02;;;;;;;10.48;6.28;;;40.40;79.40;;;;;;5047016;28;20222;-52
2022/06/19 08:33:29;;;;;;;13.02;7.10;;;40.60;75.70;;;;;;5045861;28;20244;-51
2022/06/19 08:36:00;;;;;;;12.50;5.28;;;40.70;71.20;;;;;;5047087;28;20603;-51
2022/06/19 08:38:31;;;;;;;11.43;4.63;;;40.90;75.30;;;;;;5049388;28;20756;-51
2022/06/19 08:41:29;;;;;;;7.70;5.25;;;40.60;72.70;;;;;;5048849;28;20198;-51
2022/06/19 08:44:35;;;;;;;10.60;5.82;;;41.10;71.50;;;;;;5038078;28;20201;-51
2022/06/19 08:47:17;;;;;;;10.18;5.60;;;41.40;68.70;;;;;;5055801;28;20217;-52
2022/06/19 08:49:54;;;;;;;15.82;5.25;;;41.20;67.10;;;;;;5056737;28;20193;-52
2022/06/19 08:52:38;;;;;;;10.88;4.75;;;41.20;63.50;;;;;;5050607;28;20225;-51
2022/06/19 08:55:22;;;;;;;15.68;4.95;;;41.40;62.50;;;;;;5053578;28;20213;-52
2022/06/19 08:58:03;;;;;;;9.57;4.20;;;41.30;66.00;;;;;;5054856;28;20298;-51
2022/06/19 09:00:40;;;;;;;11.20;4.38;;;41.40;59.00;;;;;;5055855;28;20284;-52
2022/06/19 09:03:18;;;;;;;7.90;5.22;;;41.60;65.10;;;;;;5056063;28;20200;-51
2022/06/19 09:05:53;;;;;;;12.23;4.80;;;41.50;63.00;;;;;;5056448;28;20256;-51
2022/06/19 09:08:42;;;;;;;12.00;5.32;;;41.40;62.80;;;;;;5056350;28;20415;-51
2022/06/19 09:11:23;;;;;;;17.13;5.15;;;41.20;65.70;;;;;;5053558;28;20240;-51
2022/06/19 09:14:08;;;;;;;8.98;4.40;;;41.30;66.10;;;;;;5057194;28;20308;-51
2022/06/19 09:16:39;;;;;;;8.73;4.32;;;41.20;66.80;;;;;;5056055;28;20363;-52
2022/06/19 09:19:13;;;;;;;10.05;4.55;;;40.70;61.50;;;;;;5054628;28;20225;-52
2022/06/19 09:21:56;;;;;;;9.88;3.88;;;41.20;62.50;;;;;;5053979;28;20736;-52
2022/06/19 09:24:39;;;;;;;15.38;5.50;;;40.90;64.60;;;;;;5056815;28;20335;-52
2022/06/19 09:27:09;;;;;;;11.48;4.35;;;41.10;69.00;;;;;;5055821;28;20237;-52
2022/06/19 09:29:43;;;;;;;12.85;5.18;;;41.50;60.00;;;;;;5056510;28;20190;-52
2022/06/19 09:32:20;;;;;;;11.95;4.93;;;41.40;60.30;;;;;;5056890;28;20229;-52
2022/06/19 09:34:52;;;;;;;11.40;5.20;;;40.70;64.10;;;;;;5057183;28;20678;-52
2022/06/19 09:37:27;;;;;;;10.23;3.33;;;40.80;60.00;;;;;;5052898;28;20229;-52
2022/06/19 09:39:59;;;;;;;14.68;4.47;;;41.00;64.40;;;;;;5054359;28;20213;-52
2022/06/19 09:42:32;;;;;;;9.93;4.30;;;40.90;57.50;;;;;;5053935;28;20198;-52
2022/06/19 09:45:05;;;;;;;10.60;5.20;;;40.90;58.90;;;;;;5056180;28;20244;-52
2022/06/19 09:47:39;;;;;;;12.00;5.63;;;41.30;58.30;;;;;;5055437;28;20217;-52
2022/06/19 09:50:11;;;;;;;10.63;5.05;;;41.40;56.30;;;;;;5056560;28;20197;-53
2022/06/19 09:52:43;;;;;;;9.98;4.63;;;41.40;57.00;;;;;;5057158;28;20226;-53
2022/06/19 09:55:16;;;;;;;14.32;5.22;;;41.50;63.20;;;;;;5053231;28;20206;-53
2022/06/19 09:57:48;;;;;;;12.77;6.28;;;41.70;70.50;;;;;;5053292;28;20185;-53
2022/06/19 10:00:21;;;;;;;11.43;4.85;;;41.10;70.70;;;;;;5053535;28;20672;-53
2022/06/19 10:02:56;;;;;;;8.65;4.75;;;41.30;73.60;;;;;;5047718;28;20198;-53
2022/06/19 10:05:33;;;;;;;10.82;5.78;;;40.40;72.30;;;;;;5050543;28;20193;-52
2022/06/19 10:08:06;;;;;;;18.05;5.93;;;39.90;74.80;;;;;;5042049;22;20315;-57
2022/06/19 10:10:39;;;;;;;13.32;5.40;;;39.90;75.10;;;;;;5012991;28;20195;-56
2022/06/19 10:13:14;;;;;;;13.35;5.22;;;39.50;76.90;;;;;;5008002;28;20195;-57
2022/06/19 10:15:44;;;;;;;17.92;6.25;;;39.70;77.40;;;;;;5011314;28;20196;-56
2022/06/19 10:18:17;;;;;;;12.23;5.63;;;39.80;75.00;;;;;;5012299;28;20231;-57
2022/06/19 10:20:55;;;;;;;8.93;5.47;;;40.10;72.00;;;;;;5006865;28;20204;-57
2022/06/19 10:23:30;;;;;;;9.27;5.28;;;40.20;74.10;;;;;;5008202;28;20272;-57
2022/06/19 10:26:09;;;;;;;13.80;5.32;;;40.30;72.60;;;;;;5011297;28;20226;-57
2022/06/19 10:29:06;;;;;;;16.08;5.32;;;40.70;76.80;;;;;;5008521;28;20275;-57
2022/06/19 10:31:45;;;;;;;8.82;5.03;;;41.00;73.10;;;;;;5012425;28;20223;-57
2022/06/19 10:34:22;;;;;;;12.70;5.32;;;40.80;75.50;;;;;;5011368;28;20195;-57
2022/06/19 10:36:58;;;;;;;14.02;5.35;;;40.90;74.50;;;;;;5011042;28;20227;-57
2022/06/19 10:39:36;;;;;;;16.08;4.78;;;40.70;69.00;;;;;;5012345;28;20272;-57
2022/06/19 10:42:11;;;;;;;12.32;5.15;;;41.00;72.40;;;;;;5009851;28;20241;-57
2022/06/19 10:45:08;;;;;;;9.93;4.38;;;40.90;70.30;;;;;;5008666;28;20918;-57
2022/06/19 10:47:50;;;;;;;14.18;4.30;;;41.00;72.60;;;;;;5011910;28;20226;-57
2022/06/19 10:50:29;;;;;;;11.10;5.38;;;40.90;67.20;;;;;;5012102;28;20203;-58
2022/06/19 10:53:05;;;;;;;8.98;4.35;;;41.00;71.10;;;;;;5009851;28;20763;-57
2022/06/19 10:55:38;;;;;;;9.27;4.82;;;40.70;69.60;;;;;;5009368;28;20688;-57
2022/06/19 10:58:15;;;;;;;13.32;5.13;;;40.20;69.40;;;;;;5007879;28;20649;-57
2022/06/19 11:00:42;;;;;;;16.48;5.38;;;40.30;67.80;;;;;;5011721;28;20274;-57
2022/06/19 11:06:09;;;;;;;10.73;2.97;;;39.60;56.80;;;;;;5010481;28;20206;-57
2022/06/19 11:08:37;;;;;;;8.35;4.03;;;38.90;61.30;;;;;;5008870;28;20785;-57
2022/06/19 11:11:06;;;;;;;14.25;3.15;;;38.90;63.50;;;;;;5010953;28;21602;-57
2022/06/19 11:14:07;;;;;;;12.25;4.93;;;38.80;67.70;;;;;;5011728;28;20188;-56
2022/06/19 11:16:36;;;;;;;6.97;6.18;;;38.40;79.50;;;;;;5010089;28;20226;-56
2022/06/19 11:19:03;;;;;;;11.13;4.90;;;37.70;85.00;;;;;;5007471;28;20260;-57
2022/06/19 11:21:35;;;;;;;11.63;5.68;;;37.00;81.10;;;;;;5008715;28;20210;-57
2022/06/19 11:24:04;;;;;;;9.57;5.43;;;36.90;81.90;;;;;;5010761;28;20253;-56
2022/06/19 11:26:38;;;;;;;12.52;5.40;;;36.60;74.90;;;;;;5011160;28;20195;-56
2022/06/19 11:29:10;;;;;;;14.40;5.70;;;36.90;82.20;;;;;;5008205;28;20650;-57
2022/06/19 11:31:40;;;;;;;13.10;4.53;;;37.10;82.60;;;;;;5010905;28;20273;-57
2022/06/19 11:37:10;;;;;;;8.05;4.80;;;37.20;73.30;;;;;;5007645;28;20211;-56
2022/06/19 11:39:41;;;;;;;9.30;4.63;;;37.10;83.00;;;;;;5009945;28;20728;-56
2022/06/19 11:42:32;;;;;;;10.23;5.60;;;36.30;81.90;;;;;;5010343;28;20921;-56
2022/06/19 11:45:02;;;;;;;8.00;4.80;;;36.00;85.00;;;;;;5010760;28;20211;-56
2022/06/19 11:47:36;;;;;;;15.85;5.40;;;36.00;80.20;;;;;;5007205;28;20223;-57
2022/06/19 11:50:22;;;;;;;16.52;5.78;;;36.10;81.10;;;;;;5007061;28;20253;-56
2022/06/19 11:52:57;;;;;;;11.68;5.35;;;36.10;86.50;;;;;;5008641;28;20289;-56
2022/06/19 11:55:28;;;;;;;14.25;5.00;;;35.90;80.80;;;;;;5010786;28;20199;-56
2022/06/19 11:57:59;;;;;;;8.88;5.07;;;35.70;80.60;;;;;;5010684;28;20309;-56
2022/06/19 12:00:31;;;;;;;19.45;6.35;;;35.50;86.10;;;;;;5006578;28;20223;-56
2022/06/19 12:03:01;;;;;;;15.43;5.85;;;35.60;85.20;;;;;;5007432;28;20692;-56
2022/06/19 12:05:33;;;;;;;11.90;6.00;;;35.20;82.70;;;;;;5010058;28;20218;-56
2022/06/19 12:08:08;;;;;;;10.18;5.57;;;35.20;85.10;;;;;;5009188;28;20235;-56
2022/06/19 12:10:40;;;;;;;14.18;6.13;;;35.20;85.30;;;;;;5010465;28;20199;-56
2022/06/19 12:13:21;;;;;;;12.10;5.70;;;34.80;80.50;;;;;;5010239;28;20203;-56
2022/06/19 12:15:55;;;;;;;12.05;5.85;;;34.60;84.10;;;;;;5010367;28;20587;-56
2022/06/19 12:18:23;;;;;;;15.40;6.40;;;34.20;82.80;;;;;;5010656;28;20228;-56
2022/06/19 12:21:02;;;;;;;14.38;6.40;;;33.90;82.90;;;;;;5009884;28;20226;-56
2022/06/19 12:23:38;;;;;;;7.53;5.95;;;33.60;83.80;;;;;;5010169;28;20238;-55
2022/06/19 12:26:10;;;;;;;7.93;6.50;;;33.60;85.70;;;;;;5008238;28;20647;-56
2022/06/19 12:28:44;;;;;;;15.38;7.32;;;33.70;85.60;;;;;;5010335;28;20219;-56
2022/06/19 12:31:14;;;;;;;11.43;6.28;;;33.60;83.80;;;;;;5010066;28;20203;-56
2022/06/19 12:33:46;;;;;;;10.60;6.82;;;33.60;83.80;;;;;;5010083;28;20684;-56
2022/06/19 12:36:14;;;;;;;7.15;6.45;;;33.80;84.50;;;;;;5009995;28;20231;-56
2022/06/19 12:38:43;;;;;;;8.73;7.38;;;33.70;84.00;;;;;;5008178;28;20281;-56
2022/06/19 12:41:35;;;;;;;17.73;7.30;;;33.50;82.80;;;;;;5005191;28;20207;-56
2022/06/19 12:44:16;;;;;;;12.98;6.97;;;33.30;83.60;;;;;;5008639;28;20257;-56
2022/06/19 12:46:54;;;;;;;12.95;6.95;;;33.20;86.30;;;;;;5010434;28;20306;-56
2022/06/19 12:49:36;;;;;;;16.63;6.70;;;33.00;82.50;;;;;;5008522;28;20282;-56
2022/06/19 12:52:17;;;;;;;15.02;7.68;;;33.00;85.30;;;;;;5009748;28;20241;-56
2022/06/19 12:55:22;;;;;;;8.60;6.97;;;33.10;83.20;;;;;;5009736;28;20257;-56
2022/06/19 12:58:07;;;;;;;11.90;7.03;;;33.10;86.60;;;;;;5007549;28;20293;-56
2022/06/19 13:00:40;;;;;;;12.00;7.15;;;33.10;83.50;;;;;;5008388;28;20262;-56
2022/06/19 13:03:42;;;;;;;16.77;7.80;;;33.00;83.80;;;;;;5009592;28;20199;-56
2022/06/19 13:06:22;;;;;;;16.02;8.52;;;33.10;86.30;;;;;;5006236;28;20982;-56
2022/06/19 13:09:00;;;;;;;15.25;7.47;;;33.10;82.80;;;;;;5008207;28;20207;-56
2022/06/19 13:11:40;;;;;;;12.27;6.65;;;33.00;82.80;;;;;;5009660;28;20644;-56